Terminal Aerodrome Forecast
Issued by NWS

Home | Current Version | Previous Version | Text Only | Print | Product List | Glossary On
Versions: 1 2 3 4 5 6 7 8 9 10 11 12 13 14 15 16 17 18 19 20 21 22 23 24
000
FTUS45 KGJT 162330
TAFEGE
TAF
KEGE 162330Z 1700/1724 25007KT P6SM FEW120
     FM170200 11004KT P6SM FEW200
     FM170900 00000KT P6SM SKC
     FM172100 25008KT P6SM FEW110
      AMD LTD TO CLD VIS AND WIND 1701/1713=

USA.gov is the U.S. government's official web portal to all federal, state and local government web resources and services.